Flight Track Log - Related Links

Times and Time Zones

All times are in EDT time to prevent confusion due to time zone crossing. See the CHQ5290 flight status page for this flight to view local times or setup timezone preferences in your user account.

Time Position Orientation Groundspeed Altitude Reporting Facility
EDT Latitude Longitude Course Direction KTS MPH feet Rate Location/Type
Sat 09:20:24 PM 42.0000 -87.8500 14° North 185 213 2,500  Level Chicago TRACON
Sat 09:21:12 PM 42.0500 -87.8333 14° North 226 260 4,000 1,684 Climbing Chicago TRACON
Sat 09:22:00 PM 42.2783 -87.8017 14° North  Level FlightAware Approximate
Sat 09:22:18 PM 42.1333 -87.8167 North 257 296 5,700  Level Chicago TRACON
Sat 09:23:00 PM 42.3798 -87.7667 North  Level FlightAware Approximate
Sat 09:23:12 PM 42.2000 -87.8167 360° North 289 333 7,600  Level Chicago TRACON
Sat 09:24:00 PM 42.4837 -87.7398 16° North  Level FlightAware Approximate
Sat 09:24:30 PM 42.3008 -87.8217 358° North 300 345 10,700  Level Chicago Center
Sat 09:25:00 PM 42.5877 -87.7097 14° North  Level FlightAware Approximate
Sat 09:25:31 PM 42.3931 -87.8253 358° North 316 364 12,400  Level Chicago Center
Sat 09:26:32 PM 42.4878 -87.8314 357° North 336 387 14,200 1,967 Climbing Chicago Center
Sat 09:27:33 PM 42.5825 -87.8233 North 343 395 16,400 1,951 Climbing Chicago Center
Sat 09:28:35 PM 42.6647 -87.7567 31° Northeast 343 395 18,200 1,854 Climbing Chicago Center
Sat 09:29:36 PM 42.7475 -87.6922 30° Northeast 344 396 20,200 1,377 Climbing Chicago Center
Sat 09:30:37 PM 42.8336 -87.6272 29° Northeast 350 403 21,000 393 Climbing Chicago Center
Sat 09:31:38 PM 42.9167 -87.5414 37° Northeast 370 426 21,000  Level Chicago Center
Sat 09:32:40 PM 42.9994 -87.4539 38° Northeast 376 433 21,000  Level Chicago Center
Sat 09:33:41 PM 43.0878 -87.3633 37° Northeast 376 433 21,000  Level Chicago Center
Sat 09:34:42 PM 43.1725 -87.2764 37° Northeast 377 434 21,000  Level Chicago Center
Sat 09:35:43 PM 43.2564 -87.1892 37° Northeast 377 434 21,000  Level Chicago Center
Sat 09:36:44 PM 43.3392 -87.1028 37° Northeast 376 433 21,000  Level Chicago Center
Sat 09:37:46 PM 43.4208 -87.0153 38° Northeast 375 432 21,000  Level Chicago Center
Sat 09:38:47 PM 43.5056 -86.9272 37° Northeast 376 433 21,000  Level Chicago Center
Sat 09:39:48 PM 43.6056 -86.8211 38° Northeast 377 434 21,000  Level Chicago Center
Sat 09:40:19 PM 43.6394 -86.7828 39° Northeast 378 435 21,000  Level Minneapolis Center
Sat 09:41:20 PM 43.7231 -86.6942 37° Northeast 378 435 21,000  Level Minneapolis Center
Sat 09:42:20 PM 43.8067 -86.6042 38° Northeast 378 435 21,000  Level Minneapolis Center
Sat 09:42:51 PM 43.8564 -86.5539 36° Northeast 378 435 21,000  Level Chicago Center
Sat 09:43:21 PM 43.8897 -86.5144 40° Northeast 378 435 21,000  Level Minneapolis Center
Sat 09:44:22 PM 43.9731 -86.4258 37° Northeast 378 435 21,000  Level Minneapolis Center
Sat 09:45:23 PM 44.0561 -86.3356 38° Northeast 378 435 21,000 -545 Level Minneapolis Center
Sat 09:46:23 PM 44.1442 -86.2394 38° Northeast 377 434 19,900 -1,636 Descending Minneapolis Center
Sat 09:47:24 PM 44.2250 -86.1494 39° Northeast 376 433 17,700 -2,066 Descending Minneapolis Center
Sat 09:48:25 PM 44.3044 -86.0656 37° Northeast 362 417 15,700 -1,983 Descending Minneapolis Center
Sat 09:49:25 PM 44.3767 -85.9850 39° Northeast 339 390 13,700 -1,983 Descending Minneapolis Center
Sat 09:50:26 PM 44.4608 -85.9492 17° North 321 369 11,700 -1,918 Descending Minneapolis Center
Sat 09:51:27 PM 44.5447 -85.9278 10° North 311 358 9,800 -1,884 Descending Minneapolis Center
Sat 09:52:27 PM 44.6247 -85.9069 11° North 299 344 7,900 -2,281 Descending Minneapolis Center
Sat 09:53:28 PM 44.7183 -85.8822 11° North 294 338 5,200 -2,508 Descending Minneapolis Center
Sat 09:54:29 PM 44.7494 -85.7986 62° Northeast 278 320 2,800 -1,289 Descending Minneapolis Center
Sat 09:55:29 PM 44.7469 -85.7089 92° East 252 290 2,600 -595 Descending Minneapolis Center
Sat 09:56:30 PM 44.7442 -85.6561 94° East 179 206 1,600 -738 Descending Minneapolis Center
Sat 09:57:31 PM 44.7422 -85.6069 93° East 160 184 1,100 -492 Descending Minneapolis Center

Login

Don't have an account? Register now (free) for customized features, flight alerts, and more!